sensor_id;sensor_type;location;lat;lon;timestamp;P1;durP1;ratioP1;P2;durP2;ratioP2
69943;SDS011;57257;48.408;-4.498;2022-12-10T00:01:07;37.00;;;34.00;;
69943;SDS011;57257;48.408;-4.498;2022-12-10T00:03:35;74.75;;;60.25;;
69943;SDS011;57257;48.408;-4.498;2022-12-10T00:06:01;79.50;;;58.50;;
69943;SDS011;57257;48.408;-4.498;2022-12-10T00:08:29;79.00;;;60.25;;
69943;SDS011;57257;48.408;-4.498;2022-12-10T00:10:55;42.50;;;32.75;;
69943;SDS011;57257;48.408;-4.498;2022-12-10T00:13:21;81.75;;;64.00;;
69943;SDS011;57257;48.408;-4.498;2022-12-10T00:15:47;78.50;;;62.00;;
69943;SDS011;57257;48.408;-4.498;2022-12-10T00:18:12;81.25;;;61.25;;
69943;SDS011;57257;48.408;-4.498;2022-12-10T00:20:37;38.50;;;34.25;;
69943;SDS011;57257;48.408;-4.498;2022-12-10T00:23:03;83.00;;;62.00;;
69943;SDS011;57257;48.408;-4.498;2022-12-10T00:25:29;12.50;;;6.50;;
69943;SDS011;57257;48.408;-4.498;2022-12-10T00:27:56;32.50;;;28.25;;
69943;SDS011;57257;48.408;-4.498;2022-12-10T00:30:21;82.00;;;64.00;;
69943;SDS011;57257;48.408;-4.498;2022-12-10T00:32:47;34.50;;;31.50;;
69943;SDS011;57257;48.408;-4.498;2022-12-10T00:35:12;77.25;;;61.00;;
69943;SDS011;57257;48.408;-4.498;2022-12-10T00:37:38;26.50;;;21.50;;
69943;SDS011;57257;48.408;-4.498;2022-12-10T00:40:03;79.50;;;62.25;;
69943;SDS011;57257;48.408;-4.498;2022-12-10T00:42:29;34.50;;;29.25;;
69943;SDS011;57257;48.408;-4.498;2022-12-10T00:44:55;36.50;;;32.50;;
69943;SDS011;57257;48.408;-4.498;2022-12-10T00:47:20;72.75;;;59.00;;
69943;SDS011;57257;48.408;-4.498;2022-12-10T00:49:46;38.25;;;32.50;;
69943;SDS011;57257;48.408;-4.498;2022-12-10T00:52:11;76.25;;;60.50;;
69943;SDS011;57257;48.408;-4.498;2022-12-10T00:54:37;75.25;;;61.50;;
69943;SDS011;57257;48.408;-4.498;2022-12-10T00:57:02;38.25;;;32.50;;
69943;SDS011;57257;48.408;-4.498;2022-12-10T00:59:28;80.00;;;63.50;;
69943;SDS011;57257;48.408;-4.498;2022-12-10T01:01:53;72.75;;;59.00;;
69943;SDS011;57257;48.408;-4.498;2022-12-10T01:04:19;32.00;;;30.25;;
69943;SDS011;57257;48.408;-4.498;2022-12-10T01:06:46;43.25;;;36.25;;
69943;SDS011;57257;48.408;-4.498;2022-12-10T01:09:14;77.75;;;61.50;;
69943;SDS011;57257;48.408;-4.498;2022-12-10T01:11:43;82.75;;;63.75;;
69943;SDS011;57257;48.408;-4.498;2022-12-10T01:14:10;44.50;;;38.75;;
69943;SDS011;57257;48.408;-4.498;2022-12-10T01:16:37;76.25;;;61.00;;
69943;SDS011;57257;48.408;-4.498;2022-12-10T01:19:03;43.75;;;35.25;;
69943;SDS011;57257;48.408;-4.498;2022-12-10T01:21:28;88.50;;;67.75;;
69943;SDS011;57257;48.408;-4.498;2022-12-10T01:23:55;43.75;;;42.00;;
69943;SDS011;57257;48.408;-4.498;2022-12-10T01:26:22;77.00;;;64.25;;
69943;SDS011;57257;48.408;-4.498;2022-12-10T01:28:49;39.75;;;32.25;;
69943;SDS011;57257;48.408;-4.498;2022-12-10T01:31:19;39.25;;;35.75;;
69943;SDS011;57257;48.408;-4.498;2022-12-10T01:33:47;81.75;;;65.25;;
69943;SDS011;57257;48.408;-4.498;2022-12-10T01:36:17;82.75;;;63.75;;
69943;SDS011;57257;48.408;-4.498;2022-12-10T01:38:45;34.25;;;33.50;;
69943;SDS011;57257;48.408;-4.498;2022-12-10T01:41:18;73.75;;;60.75;;
69943;SDS011;57257;48.408;-4.498;2022-12-10T01:46:23;81.75;;;59.75;;
69943;SDS011;57257;48.408;-4.498;2022-12-10T01:48:52;77.75;;;59.75;;
69943;SDS011;57257;48.408;-4.498;2022-12-10T01:51:18;74.25;;;59.50;;
69943;SDS011;57257;48.408;-4.498;2022-12-10T01:53:44;24.50;;;21.00;;
69943;SDS011;57257;48.408;-4.498;2022-12-10T01:56:11;40.50;;;34.25;;
69943;SDS011;57257;48.408;-4.498;2022-12-10T01:58:37;30.50;;;22.50;;
69943;SDS011;57257;48.408;-4.498;2022-12-10T02:01:10;44.25;;;34.25;;
69943;SDS011;57257;48.408;-4.498;2022-12-10T02:06:16;69.50;;;57.75;;
69943;SDS011;57257;48.408;-4.498;2022-12-10T02:09:04;75.75;;;61.50;;
69943;SDS011;57257;48.408;-4.498;2022-12-10T02:14:13;33.00;;;28.50;;
69943;SDS011;57257;48.408;-4.498;2022-12-10T02:16:47;77.00;;;61.25;;
69943;SDS011;57257;48.408;-4.498;2022-12-10T02:19:21;70.00;;;58.00;;
69943;SDS011;57257;48.408;-4.498;2022-12-10T02:24:56;76.25;;;60.75;;
69943;SDS011;57257;48.408;-4.498;2022-12-10T02:29:52;69.75;;;58.75;;
69943;SDS011;57257;48.408;-4.498;2022-12-10T02:32:22;37.00;;;29.00;;
69943;SDS011;57257;48.408;-4.498;2022-12-10T02:34:51;68.00;;;55.25;;
69943;SDS011;57257;48.408;-4.498;2022-12-10T02:37:37;74.75;;;56.50;;
69943;SDS011;57257;48.408;-4.498;2022-12-10T02:40:08;30.00;;;25.00;;
69943;SDS011;57257;48.408;-4.498;2022-12-10T02:42:40;35.00;;;28.25;;
69943;SDS011;57257;48.408;-4.498;2022-12-10T02:45:09;31.50;;;29.00;;
69943;SDS011;57257;48.408;-4.498;2022-12-10T02:47:35;21.25;;;18.50;;
69943;SDS011;57257;48.408;-4.498;2022-12-10T02:50:03;76.50;;;59.25;;
69943;SDS011;57257;48.408;-4.498;2022-12-10T02:52:31;72.00;;;59.00;;
69943;SDS011;57257;48.408;-4.498;2022-12-10T02:54:56;76.00;;;60.00;;
69943;SDS011;57257;48.408;-4.498;2022-12-10T03:02:47;67.00;;;55.50;;
69943;SDS011;57257;48.408;-4.498;2022-12-10T03:07:42;58.75;;;50.00;;
69943;SDS011;57257;48.408;-4.498;2022-12-10T03:10:28;24.25;;;21.25;;
69943;SDS011;57257;48.408;-4.498;2022-12-10T03:13:00;72.25;;;58.25;;
69943;SDS011;57257;48.408;-4.498;2022-12-10T03:15:32;68.50;;;55.75;;
69943;SDS011;57257;48.408;-4.498;2022-12-10T03:18:03;67.75;;;53.75;;
69943;SDS011;57257;48.408;-4.498;2022-12-10T03:20:30;64.75;;;51.25;;
69943;SDS011;57257;48.408;-4.498;2022-12-10T03:23:02;23.50;;;22.75;;
69943;SDS011;57257;48.408;-4.498;2022-12-10T03:25:29;29.75;;;22.25;;
69943;SDS011;57257;48.408;-4.498;2022-12-10T03:27:58;61.50;;;51.00;;
69943;SDS011;57257;48.408;-4.498;2022-12-10T03:30:25;21.50;;;17.75;;
69943;SDS011;57257;48.408;-4.498;2022-12-10T03:32:51;67.00;;;50.50;;
69943;SDS011;57257;48.408;-4.498;2022-12-10T03:35:17;57.75;;;46.50;;
69943;SDS011;57257;48.408;-4.498;2022-12-10T03:37:46;64.00;;;51.50;;
69943;SDS011;57257;48.408;-4.498;2022-12-10T03:40:14;65.75;;;50.75;;
69943;SDS011;57257;48.408;-4.498;2022-12-10T03:42:42;58.00;;;48.00;;
69943;SDS011;57257;48.408;-4.498;2022-12-10T03:45:07;20.00;;;18.50;;
69943;SDS011;57257;48.408;-4.498;2022-12-10T03:47:33;27.25;;;22.50;;
69943;SDS011;57257;48.408;-4.498;2022-12-10T03:49:59;59.50;;;49.00;;
69943;SDS011;57257;48.408;-4.498;2022-12-10T03:52:24;62.50;;;52.50;;
69943;SDS011;57257;48.408;-4.498;2022-12-10T03:54:50;55.50;;;47.75;;
69943;SDS011;57257;48.408;-4.498;2022-12-10T03:57:15;51.75;;;41.00;;
69943;SDS011;57257;48.408;-4.498;2022-12-10T03:59:41;58.25;;;45.75;;
69943;SDS011;57257;48.408;-4.498;2022-12-10T04:02:06;40.00;;;40.00;;
69943;SDS011;57257;48.408;-4.498;2022-12-10T04:04:32;20.00;;;19.25;;
69943;SDS011;57257;48.408;-4.498;2022-12-10T04:06:57;29.25;;;23.25;;
69943;SDS011;57257;48.408;-4.498;2022-12-10T04:09:23;62.25;;;46.50;;
69943;SDS011;57257;48.408;-4.498;2022-12-10T04:11:48;17.00;;;15.00;;
69943;SDS011;57257;48.408;-4.498;2022-12-10T04:14:13;26.00;;;16.50;;
69943;SDS011;57257;48.408;-4.498;2022-12-10T04:16:58;49.50;;;43.75;;
69943;SDS011;57257;48.408;-4.498;2022-12-10T04:19:24;21.50;;;18.50;;
69943;SDS011;57257;48.408;-4.498;2022-12-10T04:25:12;56.00;;;45.75;;
69943;SDS011;57257;48.408;-4.498;2022-12-10T04:27:55;49.50;;;42.00;;
69943;SDS011;57257;48.408;-4.498;2022-12-10T04:30:21;55.00;;;45.00;;
69943;SDS011;57257;48.408;-4.498;2022-12-10T04:32:47;50.00;;;43.75;;
69943;SDS011;57257;48.408;-4.498;2022-12-10T04:35:12;54.50;;;44.75;;
69943;SDS011;57257;48.408;-4.498;2022-12-10T04:37:38;19.25;;;18.75;;
69943;SDS011;57257;48.408;-4.498;2022-12-10T04:40:03;47.00;;;42.25;;
69943;SDS011;57257;48.408;-4.498;2022-12-10T04:42:29;50.00;;;43.50;;
69943;SDS011;57257;48.408;-4.498;2022-12-10T04:44:54;51.25;;;46.25;;
69943;SDS011;57257;48.408;-4.498;2022-12-10T04:47:20;47.25;;;43.25;;
69943;SDS011;57257;48.408;-4.498;2022-12-10T04:49:45;47.00;;;44.50;;
69943;SDS011;57257;48.408;-4.498;2022-12-10T04:52:12;50.75;;;42.50;;
69943;SDS011;57257;48.408;-4.498;2022-12-10T04:54:39;22.00;;;19.25;;
69943;SDS011;57257;48.408;-4.498;2022-12-10T04:57:06;55.00;;;43.00;;
69943;SDS011;57257;48.408;-4.498;2022-12-10T04:59:32;31.75;;;30.50;;
69943;SDS011;57257;48.408;-4.498;2022-12-10T05:01:57;17.00;;;17.00;;
69943;SDS011;57257;48.408;-4.498;2022-12-10T05:04:23;45.75;;;41.50;;
69943;SDS011;57257;48.408;-4.498;2022-12-10T05:06:48;17.75;;;12.25;;
69943;SDS011;57257;48.408;-4.498;2022-12-10T05:09:14;20.50;;;17.75;;
69943;SDS011;57257;48.408;-4.498;2022-12-10T05:11:40;55.50;;;46.00;;
69943;SDS011;57257;48.408;-4.498;2022-12-10T05:14:08;16.00;;;13.00;;
69943;SDS011;57257;48.408;-4.498;2022-12-10T05:16:36;51.25;;;41.75;;
69943;SDS011;57257;48.408;-4.498;2022-12-10T05:19:01;18.50;;;16.50;;
69943;SDS011;57257;48.408;-4.498;2022-12-10T05:21:27;62.50;;;48.75;;
69943;SDS011;57257;48.408;-4.498;2022-12-10T05:24:14;49.50;;;40.75;;
69943;SDS011;57257;48.408;-4.498;2022-12-10T05:26:41;15.50;;;15.50;;
69943;SDS011;57257;48.408;-4.498;2022-12-10T05:29:06;50.75;;;40.75;;
69943;SDS011;57257;48.408;-4.498;2022-12-10T05:31:32;16.75;;;12.25;;
69943;SDS011;57257;48.408;-4.498;2022-12-10T05:33:57;18.25;;;15.25;;
69943;SDS011;57257;48.408;-4.498;2022-12-10T05:36:24;19.75;;;10.50;;
69943;SDS011;57257;48.408;-4.498;2022-12-10T05:38:53;50.50;;;43.25;;
69943;SDS011;57257;48.408;-4.498;2022-12-10T05:41:20;53.50;;;46.00;;
69943;SDS011;57257;48.408;-4.498;2022-12-10T05:43:47;47.50;;;43.75;;
69943;SDS011;57257;48.408;-4.498;2022-12-10T05:46:14;21.00;;;18.00;;
69943;SDS011;57257;48.408;-4.498;2022-12-10T05:48:50;65.25;;;50.75;;
69943;SDS011;57257;48.408;-4.498;2022-12-10T05:51:17;57.50;;;48.50;;
69943;SDS011;57257;48.408;-4.498;2022-12-10T05:53:44;56.00;;;47.50;;
69943;SDS011;57257;48.408;-4.498;2022-12-10T05:56:11;12.75;;;12.50;;
69943;SDS011;57257;48.408;-4.498;2022-12-10T05:58:39;63.00;;;49.25;;
69943;SDS011;57257;48.408;-4.498;2022-12-10T06:01:08;30.00;;;19.00;;
69943;SDS011;57257;48.408;-4.498;2022-12-10T06:03:41;55.00;;;48.50;;
69943;SDS011;57257;48.408;-4.498;2022-12-10T06:06:07;20.00;;;16.00;;
69943;SDS011;57257;48.408;-4.498;2022-12-10T06:08:33;57.75;;;45.00;;
69943;SDS011;57257;48.408;-4.498;2022-12-10T06:11:01;21.50;;;18.75;;
69943;SDS011;57257;48.408;-4.498;2022-12-10T06:13:31;25.25;;;22.50;;
69943;SDS011;57257;48.408;-4.498;2022-12-10T06:15:56;55.25;;;45.75;;
69943;SDS011;57257;48.408;-4.498;2022-12-10T06:18:21;13.50;;;13.50;;
69943;SDS011;57257;48.408;-4.498;2022-12-10T06:20:47;19.75;;;15.00;;
69943;SDS011;57257;48.408;-4.498;2022-12-10T06:23:13;48.00;;;43.00;;
69943;SDS011;57257;48.408;-4.498;2022-12-10T06:25:38;18.00;;;15.50;;
69943;SDS011;57257;48.408;-4.498;2022-12-10T06:28:04;48.50;;;43.25;;
69943;SDS011;57257;48.408;-4.498;2022-12-10T06:30:31;16.50;;;13.50;;
69943;SDS011;57257;48.408;-4.498;2022-12-10T06:32:57;49.50;;;44.50;;
69943;SDS011;57257;48.408;-4.498;2022-12-10T06:35:22;17.75;;;12.50;;
69943;SDS011;57257;48.408;-4.498;2022-12-10T06:37:48;49.25;;;42.00;;
69943;SDS011;57257;48.408;-4.498;2022-12-10T06:40:14;25.75;;;18.75;;
69943;SDS011;57257;48.408;-4.498;2022-12-10T06:42:40;18.75;;;18.75;;
69943;SDS011;57257;48.408;-4.498;2022-12-10T06:45:05;42.25;;;39.00;;
69943;SDS011;57257;48.408;-4.498;2022-12-10T06:47:31;48.25;;;42.00;;
69943;SDS011;57257;48.408;-4.498;2022-12-10T06:49:57;18.25;;;16.00;;
69943;SDS011;57257;48.408;-4.498;2022-12-10T06:52:22;54.00;;;44.25;;
69943;SDS011;57257;48.408;-4.498;2022-12-10T06:54:47;18.50;;;15.50;;
69943;SDS011;57257;48.408;-4.498;2022-12-10T06:57:13;3.50;;;1.00;;
69943;SDS011;57257;48.408;-4.498;2022-12-10T06:59:38;50.50;;;42.25;;
69943;SDS011;57257;48.408;-4.498;2022-12-10T07:02:04;53.00;;;44.50;;
69943;SDS011;57257;48.408;-4.498;2022-12-10T07:04:29;20.50;;;16.00;;
69943;SDS011;57257;48.408;-4.498;2022-12-10T07:06:54;17.25;;;15.00;;
69943;SDS011;57257;48.408;-4.498;2022-12-10T07:09:20;13.50;;;12.75;;
69943;SDS011;57257;48.408;-4.498;2022-12-10T07:11:45;47.00;;;41.00;;
69943;SDS011;57257;48.408;-4.498;2022-12-10T07:14:14;49.00;;;42.75;;
69943;SDS011;57257;48.408;-4.498;2022-12-10T07:16:41;39.25;;;35.00;;
69943;SDS011;57257;48.408;-4.498;2022-12-10T07:19:08;15.50;;;9.75;;
69943;SDS011;57257;48.408;-4.498;2022-12-10T07:21:35;15.25;;;13.00;;
69943;SDS011;57257;48.408;-4.498;2022-12-10T07:24:06;46.50;;;41.25;;
69943;SDS011;57257;48.408;-4.498;2022-12-10T07:26:35;42.25;;;41.00;;
69943;SDS011;57257;48.408;-4.498;2022-12-10T07:29:03;24.25;;;18.25;;
69943;SDS011;57257;48.408;-4.498;2022-12-10T07:31:29;19.00;;;16.00;;
69943;SDS011;57257;48.408;-4.498;2022-12-10T07:33:56;38.00;;;33.25;;
69943;SDS011;57257;48.408;-4.498;2022-12-10T07:36:23;50.75;;;43.25;;
69943;SDS011;57257;48.408;-4.498;2022-12-10T07:38:49;12.00;;;12.00;;
69943;SDS011;57257;48.408;-4.498;2022-12-10T07:41:16;42.00;;;37.75;;
69943;SDS011;57257;48.408;-4.498;2022-12-10T07:43:42;8.50;;;6.75;;
69943;SDS011;57257;48.408;-4.498;2022-12-10T07:48:37;17.50;;;14.75;;
69943;SDS011;57257;48.408;-4.498;2022-12-10T07:51:04;15.75;;;15.25;;
69943;SDS011;57257;48.408;-4.498;2022-12-10T07:53:29;44.50;;;35.75;;
69943;SDS011;57257;48.408;-4.498;2022-12-10T07:55:55;13.00;;;9.25;;
69943;SDS011;57257;48.408;-4.498;2022-12-10T07:58:21;42.25;;;38.75;;
69943;SDS011;57257;48.408;-4.498;2022-12-10T08:00:47;18.00;;;17.75;;
69943;SDS011;57257;48.408;-4.498;2022-12-10T08:03:12;23.00;;;16.25;;
69943;SDS011;57257;48.408;-4.498;2022-12-10T08:05:38;19.00;;;16.00;;
69943;SDS011;57257;48.408;-4.498;2022-12-10T08:08:03;38.00;;;35.50;;
69943;SDS011;57257;48.408;-4.498;2022-12-10T08:10:29;18.75;;;16.00;;
69943;SDS011;57257;48.408;-4.498;2022-12-10T08:12:55;46.25;;;43.00;;
69943;SDS011;57257;48.408;-4.498;2022-12-10T08:15:20;27.75;;;18.75;;
69943;SDS011;57257;48.408;-4.498;2022-12-10T08:17:46;20.00;;;18.25;;
69943;SDS011;57257;48.408;-4.498;2022-12-10T08:20:11;19.00;;;15.50;;
69943;SDS011;57257;48.408;-4.498;2022-12-10T08:22:37;18.25;;;17.50;;
69943;SDS011;57257;48.408;-4.498;2022-12-10T08:25:04;21.75;;;18.25;;
69943;SDS011;57257;48.408;-4.498;2022-12-10T08:27:30;13.50;;;12.50;;
69943;SDS011;57257;48.408;-4.498;2022-12-10T08:29:55;18.25;;;15.50;;
69943;SDS011;57257;48.408;-4.498;2022-12-10T08:32:20;42.50;;;36.25;;
69943;SDS011;57257;48.408;-4.498;2022-12-10T08:34:46;21.50;;;16.50;;
69943;SDS011;57257;48.408;-4.498;2022-12-10T08:37:12;22.50;;;16.50;;
69943;SDS011;57257;48.408;-4.498;2022-12-10T08:39:37;14.50;;;13.00;;
69943;SDS011;57257;48.408;-4.498;2022-12-10T08:42:03;15.00;;;13.00;;
69943;SDS011;57257;48.408;-4.498;2022-12-10T08:44:28;16.75;;;16.50;;
69943;SDS011;57257;48.408;-4.498;2022-12-10T08:46:54;16.25;;;15.25;;
69943;SDS011;57257;48.408;-4.498;2022-12-10T08:49:19;14.50;;;8.50;;
69943;SDS011;57257;48.408;-4.498;2022-12-10T08:51:45;17.00;;;13.00;;
69943;SDS011;57257;48.408;-4.498;2022-12-10T08:54:10;13.00;;;13.00;;
69943;SDS011;57257;48.408;-4.498;2022-12-10T08:56:35;20.00;;;12.25;;
69943;SDS011;57257;48.408;-4.498;2022-12-10T08:59:01;20.00;;;14.25;;
69943;SDS011;57257;48.408;-4.498;2022-12-10T09:01:27;15.00;;;12.50;;
69943;SDS011;57257;48.408;-4.498;2022-12-10T09:03:53;19.50;;;13.50;;
69943;SDS011;57257;48.408;-4.498;2022-12-10T09:06:19;18.50;;;13.00;;
69943;SDS011;57257;48.408;-4.498;2022-12-10T09:08:46;20.25;;;17.50;;
69943;SDS011;57257;48.408;-4.498;2022-12-10T09:11:13;27.50;;;19.00;;
69943;SDS011;57257;48.408;-4.498;2022-12-10T09:13:41;19.50;;;15.75;;
69943;SDS011;57257;48.408;-4.498;2022-12-10T09:16:07;22.25;;;17.00;;
69943;SDS011;57257;48.408;-4.498;2022-12-10T09:18:33;21.75;;;16.00;;
69943;SDS011;57257;48.408;-4.498;2022-12-10T09:20:59;14.50;;;7.50;;
69943;SDS011;57257;48.408;-4.498;2022-12-10T09:23:25;20.00;;;17.00;;
69943;SDS011;57257;48.408;-4.498;2022-12-10T09:25:50;18.25;;;16.00;;
69943;SDS011;57257;48.408;-4.498;2022-12-10T09:28:16;14.50;;;14.50;;
69943;SDS011;57257;48.408;-4.498;2022-12-10T09:30:41;19.25;;;16.00;;
69943;SDS011;57257;48.408;-4.498;2022-12-10T09:33:06;19.75;;;15.00;;
69943;SDS011;57257;48.408;-4.498;2022-12-10T09:35:32;15.75;;;15.00;;
69943;SDS011;57257;48.408;-4.498;2022-12-10T09:37:58;19.25;;;15.25;;
69943;SDS011;57257;48.408;-4.498;2022-12-10T09:40:29;16.50;;;15.00;;
69943;SDS011;57257;48.408;-4.498;2022-12-10T09:43:10;13.00;;;10.50;;
69943;SDS011;57257;48.408;-4.498;2022-12-10T09:53:45;9.00;;;6.00;;
69943;SDS011;57257;48.408;-4.498;2022-12-10T09:56:19;7.50;;;6.00;;
69943;SDS011;57257;48.408;-4.498;2022-12-10T09:58:47;48.25;;;45.50;;
69943;SDS011;57257;48.408;-4.498;2022-12-10T10:01:14;20.00;;;13.00;;
69943;SDS011;57257;48.408;-4.498;2022-12-10T10:03:42;1.00;;;1.00;;
69943;SDS011;57257;48.408;-4.498;2022-12-10T10:06:09;6.00;;;3.00;;
69943;SDS011;57257;48.408;-4.498;2022-12-10T10:08:48;13.00;;;6.25;;
69943;SDS011;57257;48.408;-4.498;2022-12-10T10:11:18;2.50;;;2.50;;
69943;SDS011;57257;48.408;-4.498;2022-12-10T10:13:51;36.75;;;34.75;;
69943;SDS011;57257;48.408;-4.498;2022-12-10T10:16:33;2.75;;;1.00;;
69943;SDS011;57257;48.408;-4.498;2022-12-10T10:19:03;4.00;;;1.50;;
69943;SDS011;57257;48.408;-4.498;2022-12-10T10:21:35;1.00;;;1.00;;
69943;SDS011;57257;48.408;-4.498;2022-12-10T10:24:03;3.00;;;1.00;;
69943;SDS011;57257;48.408;-4.498;2022-12-10T10:26:31;30.75;;;24.25;;
69943;SDS011;57257;48.408;-4.498;2022-12-10T10:28:58;2.50;;;2.50;;
69943;SDS011;57257;48.408;-4.498;2022-12-10T10:31:27;2.00;;;2.00;;
69943;SDS011;57257;48.408;-4.498;2022-12-10T10:33:57;86.75;;;62.50;;
69943;SDS011;57257;48.408;-4.498;2022-12-10T10:36:25;3.00;;;3.00;;
69943;SDS011;57257;48.408;-4.498;2022-12-10T10:38:55;3.75;;;0.75;;
69943;SDS011;57257;48.408;-4.498;2022-12-10T10:41:22;0.50;;;0.50;;
69943;SDS011;57257;48.408;-4.498;2022-12-10T10:43:49;6.25;;;6.00;;
69943;SDS011;57257;48.408;-4.498;2022-12-10T10:46:23;0.50;;;0.50;;
69943;SDS011;57257;48.408;-4.498;2022-12-10T10:48:49;3.25;;;3.00;;
69943;SDS011;57257;48.408;-4.498;2022-12-10T10:51:15;7.00;;;3.00;;
69943;SDS011;57257;48.408;-4.498;2022-12-10T10:53:55;14.50;;;9.50;;
69943;SDS011;57257;48.408;-4.498;2022-12-10T10:56:25;50.25;;;40.00;;
69943;SDS011;57257;48.408;-4.498;2022-12-10T10:59:05;12.25;;;9.00;;
69943;SDS011;57257;48.408;-4.498;2022-12-10T11:01:49;7.25;;;3.50;;
69943;SDS011;57257;48.408;-4.498;2022-12-10T11:04:38;13.75;;;9.00;;
69943;SDS011;57257;48.408;-4.498;2022-12-10T11:07:23;3.75;;;3.75;;
69943;SDS011;57257;48.408;-4.498;2022-12-10T11:09:55;6.75;;;6.75;;
69943;SDS011;57257;48.408;-4.498;2022-12-10T11:12:41;32.50;;;29.50;;
69943;SDS011;57257;48.408;-4.498;2022-12-10T11:17:47;16.75;;;11.75;;
69943;SDS011;57257;48.408;-4.498;2022-12-10T11:22:55;5.00;;;3.00;;
69943;SDS011;57257;48.408;-4.498;2022-12-10T11:33:49;4.00;;;1.00;;
69943;SDS011;57257;48.408;-4.498;2022-12-10T11:36:29;0.00;;;0.00;;
69943;SDS011;57257;48.408;-4.498;2022-12-10T11:39:18;15.50;;;13.25;;
69943;SDS011;57257;48.408;-4.498;2022-12-10T11:42:41;3.00;;;1.00;;
69943;SDS011;57257;48.408;-4.498;2022-12-10T11:51:53;18.25;;;12.25;;
69943;SDS011;57257;48.408;-4.498;2022-12-10T11:56:26;8.75;;;8.50;;
69943;SDS011;57257;48.408;-4.498;2022-12-10T12:13:16;1.00;;;1.00;;
69943;SDS011;57257;48.408;-4.498;2022-12-10T12:15:47;0.00;;;0.00;;
69943;SDS011;57257;48.408;-4.498;2022-12-10T12:21:11;0.25;;;0.25;;
69943;SDS011;57257;48.408;-4.498;2022-12-10T12:26:23;0.00;;;0.00;;
69943;SDS011;57257;48.408;-4.498;2022-12-10T12:31:46;7.00;;;3.00;;
69943;SDS011;57257;48.408;-4.498;2022-12-10T12:34:27;0.00;;;0.00;;
69943;SDS011;57257;48.408;-4.498;2022-12-10T12:37:14;3.00;;;0.50;;
69943;SDS011;57257;48.408;-4.498;2022-12-10T12:40:04;3.75;;;0.50;;
69943;SDS011;57257;48.408;-4.498;2022-12-10T12:42:52;1.50;;;1.00;;
69943;SDS011;57257;48.408;-4.498;2022-12-10T12:48:17;0.00;;;0.00;;
69943;SDS011;57257;48.408;-4.498;2022-12-10T12:50:53;1.00;;;0.00;;
69943;SDS011;57257;48.408;-4.498;2022-12-10T12:53:24;0.75;;;0.00;;
69943;SDS011;57257;48.408;-4.498;2022-12-10T12:56:36;3.00;;;1.50;;
69943;SDS011;57257;48.408;-4.498;2022-12-10T12:59:20;0.75;;;0.00;;
69943;SDS011;57257;48.408;-4.498;2022-12-10T13:04:51;1.00;;;1.00;;
69943;SDS011;57257;48.408;-4.498;2022-12-10T13:09:44;2.25;;;0.00;;
69943;SDS011;57257;48.408;-4.498;2022-12-10T13:17:34;0.25;;;0.25;;
69943;SDS011;57257;48.408;-4.498;2022-12-10T13:22:58;0.75;;;0.00;;
69943;SDS011;57257;48.408;-4.498;2022-12-10T13:25:55;0.00;;;0.00;;
69943;SDS011;57257;48.408;-4.498;2022-12-10T13:36:20;1.00;;;0.00;;
69943;SDS011;57257;48.408;-4.498;2022-12-10T13:38:57;0.50;;;0.50;;
69943;SDS011;57257;48.408;-4.498;2022-12-10T13:41:41;0.00;;;0.00;;
69943;SDS011;57257;48.408;-4.498;2022-12-10T13:44:47;2.00;;;0.00;;
69943;SDS011;57257;48.408;-4.498;2022-12-10T13:49:59;0.00;;;0.00;;
69943;SDS011;57257;48.408;-4.498;2022-12-10T13:55:25;0.00;;;0.00;;
69943;SDS011;57257;48.408;-4.498;2022-12-10T14:06:14;3.00;;;0.75;;
69943;SDS011;57257;48.408;-4.498;2022-12-10T14:08:53;0.00;;;0.00;;
69943;SDS011;57257;48.408;-4.498;2022-12-10T14:11:32;0.25;;;0.25;;
69943;SDS011;57257;48.408;-4.498;2022-12-10T14:14:02;1.00;;;1.00;;
69943;SDS011;57257;48.408;-4.498;2022-12-10T14:16:31;0.00;;;0.00;;
69943;SDS011;57257;48.408;-4.498;2022-12-10T14:19:03;0.00;;;0.00;;
69943;SDS011;57257;48.408;-4.498;2022-12-10T14:21:32;2.50;;;1.00;;
69943;SDS011;57257;48.408;-4.498;2022-12-10T14:24:00;1.00;;;0.00;;
69943;SDS011;57257;48.408;-4.498;2022-12-10T14:26:27;0.00;;;0.00;;
69943;SDS011;57257;48.408;-4.498;2022-12-10T14:29:42;1.00;;;1.00;;
69943;SDS011;57257;48.408;-4.498;2022-12-10T14:31:44;0.00;;;0.00;;
69943;SDS011;57257;48.408;-4.498;2022-12-10T14:34:14;2.50;;;1.00;;
69943;SDS011;57257;48.408;-4.498;2022-12-10T14:36:46;1.00;;;1.00;;
69943;SDS011;57257;48.408;-4.498;2022-12-10T14:39:19;3.75;;;3.00;;
69943;SDS011;57257;48.408;-4.498;2022-12-10T14:41:49;1.00;;;0.75;;
69943;SDS011;57257;48.408;-4.498;2022-12-10T14:44:17;4.00;;;3.00;;
69943;SDS011;57257;48.408;-4.498;2022-12-10T14:46:43;1.00;;;1.00;;
69943;SDS011;57257;48.408;-4.498;2022-12-10T14:49:25;0.00;;;0.00;;
69943;SDS011;57257;48.408;-4.498;2022-12-10T14:51:51;3.00;;;0.00;;
69943;SDS011;57257;48.408;-4.498;2022-12-10T14:54:28;0.00;;;0.00;;
69943;SDS011;57257;48.408;-4.498;2022-12-10T14:56:56;0.75;;;0.00;;
69943;SDS011;57257;48.408;-4.498;2022-12-10T14:59:29;0.50;;;0.50;;
69943;SDS011;57257;48.408;-4.498;2022-12-10T15:02:07;0.00;;;0.00;;
69943;SDS011;57257;48.408;-4.498;2022-12-10T15:04:58;0.00;;;0.00;;
69943;SDS011;57257;48.408;-4.498;2022-12-10T15:07:25;1.00;;;1.00;;
69943;SDS011;57257;48.408;-4.498;2022-12-10T15:09:56;3.00;;;3.00;;
69943;SDS011;57257;48.408;-4.498;2022-12-10T15:15:26;32.00;;;24.75;;
69943;SDS011;57257;48.408;-4.498;2022-12-10T15:20:45;0.50;;;0.00;;
69943;SDS011;57257;48.408;-4.498;2022-12-10T15:23:20;7.00;;;1.00;;
69943;SDS011;57257;48.408;-4.498;2022-12-10T15:25:51;0.50;;;0.00;;
69943;SDS011;57257;48.408;-4.498;2022-12-10T15:28:37;0.25;;;0.25;;
69943;SDS011;57257;48.408;-4.498;2022-12-10T15:33:37;1.00;;;0.00;;
69943;SDS011;57257;48.408;-4.498;2022-12-10T15:39:12;0.00;;;0.00;;
69943;SDS011;57257;48.408;-4.498;2022-12-10T15:44:26;0.00;;;0.00;;
69943;SDS011;57257;48.408;-4.498;2022-12-10T15:49:44;0.00;;;0.00;;
69943;SDS011;57257;48.408;-4.498;2022-12-10T15:52:15;0.00;;;0.00;;
69943;SDS011;57257;48.408;-4.498;2022-12-10T15:54:43;2.25;;;1.75;;
69943;SDS011;57257;48.408;-4.498;2022-12-10T15:59:51;0.00;;;0.00;;
69943;SDS011;57257;48.408;-4.498;2022-12-10T16:05:21;2.50;;;1.00;;
69943;SDS011;57257;48.408;-4.498;2022-12-10T16:07:52;1.00;;;0.00;;
69943;SDS011;57257;48.408;-4.498;2022-12-10T16:10:20;0.00;;;0.00;;
69943;SDS011;57257;48.408;-4.498;2022-12-10T16:12:57;2.00;;;1.00;;
69943;SDS011;57257;48.408;-4.498;2022-12-10T16:15:26;0.00;;;0.00;;
69943;SDS011;57257;48.408;-4.498;2022-12-10T16:17:55;0.00;;;0.00;;
69943;SDS011;57257;48.408;-4.498;2022-12-10T16:20:22;0.25;;;0.00;;
69943;SDS011;57257;48.408;-4.498;2022-12-10T16:22:54;0.50;;;0.50;;
69943;SDS011;57257;48.408;-4.498;2022-12-10T16:25:22;0.50;;;0.00;;
69943;SDS011;57257;48.408;-4.498;2022-12-10T16:27:49;0.00;;;0.00;;
69943;SDS011;57257;48.408;-4.498;2022-12-10T16:32:45;0.00;;;0.00;;
69943;SDS011;57257;48.408;-4.498;2022-12-10T16:35:11;0.00;;;0.00;;
69943;SDS011;57257;48.408;-4.498;2022-12-10T16:37:39;2.50;;;1.00;;
69943;SDS011;57257;48.408;-4.498;2022-12-10T16:40:09;0.25;;;0.25;;
69943;SDS011;57257;48.408;-4.498;2022-12-10T16:42:36;1.00;;;1.00;;
69943;SDS011;57257;48.408;-4.498;2022-12-10T16:45:01;5.00;;;3.75;;
69943;SDS011;57257;48.408;-4.498;2022-12-10T16:47:27;1.00;;;1.00;;
69943;SDS011;57257;48.408;-4.498;2022-12-10T16:49:53;1.00;;;1.00;;
69943;SDS011;57257;48.408;-4.498;2022-12-10T16:52:18;4.50;;;3.00;;